Forside
METAR-TAF:

METAR-TAF

Lufthavne :

Morris Municipal Airport (James R. Washburn Field)

Morris, Illinois, USA

Breddekreds: 41-25-31N, længdekreds: 088-25-07W, højde: 178 m

Aktuelle vejr

Denne rapport blev lavet for 25 minutter siden, kl. 03:30 UTC
Vind 17 kt fra sydøst med vindstød på up til 23 kt
Temperatur -2°C
Fugtighed 93%
Tryk 1021 hPa
Sigt: 2.4 km
Overskyet i en højde af 700 ft
let sne

METAR: KC09 180330Z AUTO 13017G23KT 1 1/2SM -SN OVC007 M02/M03 A3015 RMK AO2 T10221027

Tid: 21:55 (03:55 UTC)


TAF: fraværende

Vejrobservationer og prognoser fra mere end 4000 lufthavne (METAR og TAF).

De gule og røde prikker repræsenterer de meteorologiske stationer.

Flyt musen over at se navnet på stationen.

Så klik over at se vejr observationer og prognoser.

At skifte det kort: Klik på de grønne knapper med et sort kors for at zoome ind; på den grønne knap med en bindestreg for at zoome ud; eller på de grønne pile for tilstødende kort.


METAR-TAF: